createdAt,value
2023-01-25T00:01:15.022Z,87.55
2023-01-25T00:04:17.531Z,87.37
2023-01-25T00:07:20.234Z,87.10
2023-01-25T00:10:22.926Z,86.94
2023-01-25T00:13:25.908Z,86.52
2023-01-25T00:16:28.648Z,86.60
2023-01-25T00:19:31.597Z,86.54
2023-01-25T00:22:34.522Z,86.39
2023-01-25T00:25:37.335Z,86.70
2023-01-25T00:28:40.208Z,86.71
2023-01-25T00:32:02.672Z,86.87
2023-01-25T00:35:12.568Z,86.80
2023-01-25T00:38:29.860Z,87.30
2023-01-25T00:41:32.957Z,87.39
2023-01-25T00:44:36.000Z,87.25
2023-01-25T00:47:38.971Z,87.25
2023-01-25T00:50:42.745Z,87.74
2023-01-25T00:53:45.559Z,87.81
2023-01-25T00:56:48.321Z,88.06
2023-01-25T00:59:50.959Z,88.08
2023-01-25T01:02:53.938Z,88.07
2023-01-25T01:06:06.036Z,87.92
2023-01-25T01:09:14.035Z,87.87
2023-01-25T01:12:16.489Z,87.83
2023-01-25T01:15:19.292Z,88.18
2023-01-25T01:18:22.434Z,88.02
2023-01-25T01:21:25.353Z,88.05
2023-01-25T01:24:28.450Z,88.40
2023-01-25T01:27:31.340Z,88.23
2023-01-25T01:30:34.257Z,88.56
2023-01-25T01:33:37.451Z,88.70
2023-01-25T01:36:39.856Z,88.84
2023-01-25T01:39:42.569Z,88.94
2023-01-25T01:42:59.259Z,88.21
2023-01-25T01:46:22.771Z,88.22
2023-01-25T01:49:29.317Z,88.29
2023-01-25T01:52:38.903Z,88.57
2023-01-25T01:55:43.191Z,89.37
2023-01-25T01:58:47.372Z,89.18
2023-01-25T02:01:50.207Z,88.96
2023-01-25T02:04:55.490Z,89.09
2023-01-25T02:07:59.036Z,89.27
2023-01-25T02:11:04.079Z,89.08
2023-01-25T02:14:07.150Z,88.59
2023-01-25T02:17:11.761Z,88.92
2023-01-25T02:20:26.726Z,89.07
2023-01-25T02:23:37.677Z,89.13
2023-01-25T02:26:41.028Z,88.99
2023-01-25T02:29:45.809Z,88.95
2023-01-25T02:32:48.604Z,88.35
2023-01-25T02:35:58.440Z,88.76
2023-01-25T02:39:03.956Z,89.12
2023-01-25T02:42:06.897Z,89.16
2023-01-25T02:45:14.508Z,89.34
2023-01-25T02:48:17.255Z,89.40
2023-01-25T02:51:22.151Z,89.42
2023-01-25T02:54:28.740Z,89.28
2023-01-25T02:57:32.165Z,89.17
2023-01-25T03:00:36.729Z,88.61
2023-01-25T03:03:40.488Z,88.94
2023-01-25T03:06:43.786Z,89.17
2023-01-25T03:09:46.984Z,88.91
2023-01-25T03:12:49.818Z,89.36
2023-01-25T03:15:53.415Z,89.70
2023-01-25T03:18:56.583Z,89.39
2023-01-25T03:22:00.365Z,88.87
2023-01-25T03:25:03.830Z,88.64
2023-01-25T03:28:06.676Z,88.61
2023-01-25T03:31:12.243Z,88.49
2023-01-25T03:34:15.075Z,88.78
2023-01-25T03:37:19.495Z,88.87
2023-01-25T03:40:26.591Z,88.57
2023-01-25T03:43:29.832Z,88.46
2023-01-25T03:46:32.893Z,88.94
2023-01-25T03:49:35.872Z,88.97
2023-01-25T03:52:57.442Z,88.95
2023-01-25T03:56:10.941Z,88.79
2023-01-25T03:59:16.520Z,89.35
2023-01-25T04:02:20.574Z,89.83
2023-01-25T04:05:23.460Z,90.32
2023-01-25T04:08:27.099Z,89.89
2023-01-25T04:11:29.701Z,90.00
2023-01-25T04:14:43.902Z,89.96
2023-01-25T04:17:51.524Z,90.16
2023-01-25T04:21:01.737Z,90.05
2023-01-25T04:24:04.873Z,89.86
2023-01-25T04:27:12.108Z,89.05
2023-01-25T04:30:22.612Z,89.28
2023-01-25T04:33:26.705Z,89.97
2023-01-25T04:36:29.371Z,90.26
2023-01-25T04:39:32.170Z,90.34
2023-01-25T04:42:34.746Z,89.38
2023-01-25T04:45:37.595Z,89.83
2023-01-25T04:48:45.981Z,89.85
2023-01-25T04:51:49.380Z,89.49
2023-01-25T04:54:51.984Z,89.96
2023-01-25T04:57:54.831Z,89.97
2023-01-25T05:01:04.276Z,90.15
2023-01-25T05:04:08.154Z,89.70
2023-01-25T05:07:15.140Z,89.62
2023-01-25T05:10:18.614Z,90.08
2023-01-25T05:13:40.948Z,90.48
2023-01-25T05:16:50.280Z,90.17
2023-01-25T05:19:52.917Z,90.14
2023-01-25T05:22:58.594Z,89.73
2023-01-25T05:26:19.625Z,89.53
2023-01-25T05:29:22.648Z,88.96
2023-01-25T05:32:32.960Z,88.51
2023-01-25T05:35:36.376Z,87.85
2023-01-25T05:38:39.421Z,87.36
2023-01-25T05:41:44.484Z,87.18
2023-01-25T05:44:47.886Z,87.26
2023-01-25T05:47:55.524Z,87.10
2023-01-25T05:50:58.830Z,86.83
2023-01-25T05:54:02.549Z,86.74
2023-01-25T05:57:05.214Z,86.61
2023-01-25T06:00:11.323Z,86.27
2023-01-25T06:03:17.643Z,86.56
2023-01-25T06:06:21.407Z,86.78
2023-01-25T06:09:24.189Z,86.66
2023-01-25T06:12:29.379Z,86.13
2023-01-25T06:15:32.967Z,86.45
2023-01-25T06:18:58.441Z,85.63
2023-01-25T06:22:17.185Z,85.64
2023-01-25T06:25:19.719Z,85.31
2023-01-25T06:28:22.280Z,85.27
2023-01-25T06:31:24.991Z,84.74
2023-01-25T06:34:27.803Z,84.85
2023-01-25T06:37:30.482Z,84.40
2023-01-25T06:40:34.114Z,84.60
2023-01-25T06:43:37.646Z,84.31
2023-01-25T06:46:40.721Z,84.46
2023-01-25T06:49:43.658Z,84.26
2023-01-25T06:52:52.336Z,83.54
2023-01-25T06:56:22.127Z,77.98
2023-01-25T06:59:24.710Z,75.79
2023-01-25T07:02:27.376Z,75.41
2023-01-25T07:05:30.103Z,73.25
2023-01-25T07:08:34.569Z,71.75
2023-01-25T07:11:37.436Z,69.45
2023-01-25T07:14:40.768Z,69.77
2023-01-25T07:17:43.340Z,68.03
2023-01-25T07:20:46.339Z,66.44
2023-01-25T07:23:52.824Z,64.25
2023-01-25T07:26:55.360Z,63.43
2023-01-25T07:29:58.237Z,61.21
2023-01-25T07:33:00.866Z,59.09
2023-01-25T07:36:06.824Z,59.48
2023-01-25T07:39:13.546Z,59.08
2023-01-25T07:42:16.427Z,57.39
2023-01-25T07:45:30.560Z,56.97
2023-01-25T07:48:33.502Z,54.64
2023-01-25T07:51:36.486Z,52.95
2023-01-25T07:54:39.159Z,52.09
2023-01-25T07:57:41.647Z,50.40
2023-01-25T08:00:45.106Z,50.96
2023-01-25T08:03:48.204Z,47.01
2023-01-25T08:06:50.838Z,46.14
2023-01-25T08:09:53.635Z,45.56
2023-01-25T08:12:56.527Z,47.98
2023-01-25T08:15:58.949Z,47.28
2023-01-25T08:19:03.385Z,46.28
2023-01-25T08:22:08.376Z,45.00
2023-01-25T08:25:11.374Z,43.94
2023-01-25T08:28:14.051Z,44.38
2023-01-25T08:31:20.200Z,42.14
2023-01-25T08:34:22.760Z,42.96
2023-01-25T08:37:29.639Z,42.51
2023-01-25T08:40:32.205Z,42.12
2023-01-25T08:43:35.703Z,45.56
2023-01-25T08:46:38.526Z,40.95
2023-01-25T08:49:41.227Z,41.01
2023-01-25T08:52:43.944Z,41.19
2023-01-25T08:55:46.997Z,43.09
2023-01-25T08:58:50.487Z,42.29
2023-01-25T09:01:53.791Z,41.43
2023-01-25T09:04:56.382Z,40.58
2023-01-25T09:07:59.452Z,41.24
2023-01-25T09:11:06.761Z,38.93
2023-01-25T09:14:09.446Z,40.25
2023-01-25T09:17:12.037Z,38.65
2023-01-25T09:20:16.209Z,39.91
2023-01-25T09:23:22.816Z,41.71
2023-01-25T09:26:25.550Z,40.41
2023-01-25T09:29:28.253Z,40.44
2023-01-25T09:32:31.269Z,39.43
2023-01-25T09:35:34.332Z,39.38
2023-01-25T09:38:37.319Z,38.63
2023-01-25T09:42:14.873Z,38.95
2023-01-25T09:45:42.518Z,37.89
2023-01-25T09:49:07.761Z,36.73
2023-01-25T09:52:26.526Z,37.86
2023-01-25T09:55:30.878Z,36.67
2023-01-25T09:58:38.681Z,40.94
2023-01-25T10:01:56.135Z,39.54
2023-01-25T10:05:07.891Z,39.17
2023-01-25T10:08:36.507Z,37.38
2023-01-25T10:11:39.440Z,37.39
2023-01-25T10:14:42.060Z,36.13
2023-01-25T10:17:45.108Z,37.33
2023-01-25T10:20:55.982Z,39.84
2023-01-25T10:24:36.421Z,38.90
2023-01-25T10:28:05.314Z,38.11
2023-01-25T10:31:28.342Z,41.09
2023-01-25T10:34:47.017Z,39.70
2023-01-25T10:38:03.199Z,43.52
2023-01-25T10:41:13.949Z,45.36
2023-01-25T10:44:24.043Z,47.54
2023-01-25T10:47:34.338Z,49.89
2023-01-25T10:50:43.163Z,51.70
2023-01-25T10:54:02.927Z,50.39
2023-01-25T10:57:13.049Z,51.63
2023-01-25T11:00:38.766Z,52.41
2023-01-25T11:03:46.625Z,53.47
2023-01-25T11:06:51.623Z,54.04
2023-01-25T11:09:54.307Z,54.92
2023-01-25T11:13:17.424Z,56.30
2023-01-25T11:16:50.536Z,59.07
2023-01-25T11:20:18.852Z,56.64
2023-01-25T11:23:24.812Z,56.46
2023-01-25T11:26:28.556Z,56.87
2023-01-25T11:29:31.226Z,57.86
2023-01-25T11:32:34.063Z,57.73
2023-01-25T11:35:41.120Z,57.39
2023-01-25T11:39:03.723Z,57.23
2023-01-25T11:42:34.016Z,56.99
2023-01-25T11:45:42.538Z,56.92
2023-01-25T11:49:10.852Z,57.56
2023-01-25T11:52:41.251Z,57.24
2023-01-25T11:55:58.826Z,57.71
2023-01-25T11:59:09.658Z,58.68
2023-01-25T12:02:24.249Z,58.25
2023-01-25T12:05:43.742Z,57.92
2023-01-25T12:08:46.167Z,58.14
2023-01-25T12:11:52.412Z,57.97
2023-01-25T12:15:08.452Z,59.64
2023-01-25T12:18:20.242Z,58.96
2023-01-25T12:21:47.606Z,58.99
2023-01-25T12:25:20.530Z,59.44
2023-01-25T12:28:50.592Z,58.72
2023-01-25T12:32:14.291Z,59.40
2023-01-25T12:35:38.583Z,59.68
2023-01-25T12:38:53.738Z,59.88
2023-01-25T12:42:15.737Z,61.97
2023-01-25T12:45:24.787Z,61.83
2023-01-25T12:48:31.805Z,61.46
2023-01-25T12:51:40.117Z,61.33
2023-01-25T12:54:46.184Z,61.84
2023-01-25T12:58:23.815Z,61.49
2023-01-25T13:01:55.489Z,60.51
2023-01-25T13:05:25.303Z,60.96
2023-01-25T13:08:35.300Z,61.19
2023-01-25T13:11:41.058Z,60.52
2023-01-25T13:14:44.224Z,60.46
2023-01-25T13:17:46.786Z,61.08
2023-01-25T13:20:53.221Z,62.18
2023-01-25T13:24:24.878Z,62.66
2023-01-25T13:27:29.699Z,61.98
2023-01-25T13:30:36.147Z,61.67
2023-01-25T13:33:38.864Z,61.42
2023-01-25T13:36:41.495Z,62.17
2023-01-25T13:40:09.670Z,62.66
2023-01-25T13:43:13.298Z,63.76
2023-01-25T13:46:19.285Z,63.13
2023-01-25T13:49:26.219Z,64.04
2023-01-25T13:52:31.303Z,63.97
2023-01-25T13:55:43.095Z,58.88
2023-01-25T13:58:48.153Z,58.45
2023-01-25T14:01:51.465Z,56.60
2023-01-25T14:04:54.695Z,55.83
2023-01-25T14:07:57.372Z,56.05
2023-01-25T14:11:01.004Z,57.79
2023-01-25T14:14:16.241Z,58.88
2023-01-25T14:17:22.748Z,59.12
2023-01-25T14:20:25.782Z,60.51
2023-01-25T14:23:30.628Z,62.80
2023-01-25T14:26:39.249Z,64.62
2023-01-25T14:29:49.135Z,65.37
2023-01-25T14:32:57.996Z,65.77
2023-01-25T14:36:24.192Z,65.50
2023-01-25T14:39:29.468Z,66.22
2023-01-25T14:42:32.811Z,66.48
2023-01-25T14:45:35.295Z,67.48
2023-01-25T14:48:41.209Z,67.47
2023-01-25T14:51:45.567Z,67.35
2023-01-25T14:54:52.315Z,67.80
2023-01-25T14:58:00.742Z,68.29
2023-01-25T15:01:05.058Z,68.36
2023-01-25T15:04:13.025Z,67.67
2023-01-25T15:07:33.066Z,68.62
2023-01-25T15:10:38.553Z,69.00
2023-01-25T15:13:41.173Z,69.01
2023-01-25T15:16:43.828Z,69.35
2023-01-25T15:19:52.574Z,69.46
2023-01-25T15:22:56.953Z,69.36
2023-01-25T15:26:01.564Z,70.01
2023-01-25T15:29:16.224Z,70.16
2023-01-25T15:32:21.185Z,70.08
2023-01-25T15:35:23.935Z,70.39
2023-01-25T15:38:26.942Z,69.85
2023-01-25T15:41:29.792Z,70.24
2023-01-25T15:44:32.485Z,70.26
2023-01-25T15:47:36.633Z,70.77
2023-01-25T15:50:42.677Z,70.03
2023-01-25T15:53:45.457Z,69.83
2023-01-25T15:56:52.492Z,69.79
2023-01-25T15:59:56.191Z,70.61
2023-01-25T16:02:59.137Z,70.89
2023-01-25T16:06:20.396Z,70.77
2023-01-25T16:09:26.946Z,70.86
2023-01-25T16:12:32.431Z,71.60
2023-01-25T16:15:37.034Z,71.43
2023-01-25T16:18:40.335Z,71.50
2023-01-25T16:21:43.551Z,72.17
2023-01-25T16:24:46.228Z,72.44
2023-01-25T16:27:50.250Z,72.29
2023-01-25T16:30:53.524Z,72.50
2023-01-25T16:33:56.289Z,72.69
2023-01-25T16:37:00.504Z,72.51
2023-01-25T16:40:03.925Z,72.37
2023-01-25T16:43:07.242Z,72.65
2023-01-25T16:46:28.326Z,73.25
2023-01-25T16:49:32.074Z,73.50
2023-01-25T16:52:35.126Z,73.15
2023-01-25T16:55:37.974Z,72.91
2023-01-25T16:58:40.690Z,72.86
2023-01-25T17:01:43.892Z,72.70
2023-01-25T17:04:46.574Z,72.05
2023-01-25T17:07:50.784Z,72.09
2023-01-25T17:10:57.573Z,72.07
2023-01-25T17:14:00.837Z,72.15
2023-01-25T17:17:05.517Z,72.46
2023-01-25T17:20:09.172Z,71.93
2023-01-25T17:23:17.035Z,72.08
2023-01-25T17:26:27.831Z,72.67
2023-01-25T17:29:31.118Z,72.23
2023-01-25T17:32:33.933Z,73.06
2023-01-25T17:35:36.828Z,74.26
2023-01-25T17:38:40.656Z,73.78
2023-01-25T17:41:44.624Z,73.39
2023-01-25T17:44:47.641Z,73.07
2023-01-25T17:47:50.332Z,73.05
2023-01-25T17:51:04.256Z,73.83
2023-01-25T17:54:07.473Z,73.62
2023-01-25T17:57:10.598Z,74.03
2023-01-25T18:00:14.672Z,73.86
2023-01-25T18:03:20.273Z,74.01
2023-01-25T18:06:26.188Z,74.58
2023-01-25T18:09:31.520Z,74.30
2023-01-25T18:12:34.809Z,73.78
2023-01-25T18:15:37.719Z,73.48
2023-01-25T18:18:42.989Z,73.72
2023-01-25T18:21:45.765Z,73.64
2023-01-25T18:24:49.041Z,74.02
2023-01-25T18:27:51.794Z,74.19
2023-01-25T18:31:02.552Z,73.67
2023-01-25T18:34:06.681Z,74.05
2023-01-25T18:37:18.407Z,74.29
2023-01-25T18:40:21.666Z,73.73
2023-01-25T18:43:25.184Z,74.28
2023-01-25T18:46:28.358Z,73.82
2023-01-25T18:49:31.504Z,73.32
2023-01-25T18:52:35.709Z,73.01
2023-01-25T18:55:38.709Z,73.54
2023-01-25T18:58:42.497Z,72.93
2023-01-25T19:01:45.876Z,73.20
2023-01-25T19:04:50.329Z,73.66
2023-01-25T19:07:53.684Z,73.99
2023-01-25T19:11:03.991Z,74.33
2023-01-25T19:14:07.203Z,74.84
2023-01-25T19:17:11.740Z,74.43
2023-01-25T19:20:14.808Z,74.46
2023-01-25T19:23:17.842Z,74.75
2023-01-25T19:26:22.586Z,74.51
2023-01-25T19:29:25.437Z,75.14
2023-01-25T19:32:28.670Z,74.85
2023-01-25T19:35:31.400Z,74.96
2023-01-25T19:38:39.106Z,75.06
2023-01-25T19:41:42.296Z,74.30
2023-01-25T19:44:45.621Z,74.13
2023-01-25T19:47:48.496Z,74.59
2023-01-25T19:50:55.023Z,74.38
2023-01-25T19:54:05.084Z,75.19
2023-01-25T19:57:08.451Z,75.25
2023-01-25T20:00:12.245Z,75.42
2023-01-25T20:03:17.005Z,75.37
2023-01-25T20:06:20.988Z,75.58
2023-01-25T20:09:28.344Z,75.42
2023-01-25T20:12:31.380Z,75.35
2023-01-25T20:15:35.717Z,75.42
2023-01-25T20:18:41.761Z,75.53
2023-01-25T20:21:45.318Z,75.53
2023-01-25T20:24:48.401Z,75.09
2023-01-25T20:27:51.965Z,75.03
2023-01-25T20:30:58.441Z,74.95
2023-01-25T20:34:07.628Z,73.83
2023-01-25T20:37:10.535Z,73.02
2023-01-25T20:40:14.674Z,73.21
2023-01-25T20:43:18.472Z,73.86
2023-01-25T20:46:22.241Z,74.32
2023-01-25T20:49:25.995Z,74.51
2023-01-25T20:52:29.540Z,75.37
2023-01-25T20:55:32.280Z,75.58
2023-01-25T20:58:35.653Z,75.33
2023-01-25T21:01:38.278Z,75.50
2023-01-25T21:04:41.338Z,74.80
2023-01-25T21:07:44.198Z,75.89
2023-01-25T21:10:58.635Z,75.44
2023-01-25T21:14:01.266Z,75.31
2023-01-25T21:17:04.757Z,74.71
2023-01-25T21:20:08.445Z,74.76
2023-01-25T21:23:13.612Z,75.33
2023-01-25T21:26:20.319Z,74.88
2023-01-25T21:29:23.549Z,75.06
2023-01-25T21:32:26.174Z,74.75
2023-01-25T21:35:29.843Z,74.80
2023-01-25T21:38:32.763Z,74.85
2023-01-25T21:41:35.778Z,74.66
2023-01-25T21:44:57.338Z,75.19
2023-01-25T21:48:00.346Z,74.76
2023-01-25T21:51:22.341Z,74.96
2023-01-25T21:54:27.828Z,75.72
2023-01-25T21:57:30.464Z,76.00
2023-01-25T22:00:37.670Z,75.05
2023-01-25T22:03:40.381Z,75.84
2023-01-25T22:06:43.167Z,75.89
2023-01-25T22:09:45.798Z,75.86
2023-01-25T22:12:50.838Z,76.15
2023-01-25T22:15:57.863Z,76.18
2023-01-25T22:19:00.750Z,76.33
2023-01-25T22:22:03.940Z,75.50
2023-01-25T22:25:07.157Z,75.85
2023-01-25T22:28:14.316Z,75.41
2023-01-25T22:31:22.275Z,75.45
2023-01-25T22:34:25.005Z,75.15
2023-01-25T22:37:28.064Z,75.44
2023-01-25T22:40:31.582Z,75.56
2023-01-25T22:43:35.563Z,75.91
2023-01-25T22:46:38.201Z,75.62
2023-01-25T22:49:41.081Z,75.71
2023-01-25T22:52:43.850Z,76.40
2023-01-25T22:55:46.634Z,76.21
2023-01-25T22:58:49.820Z,76.55
2023-01-25T23:01:53.231Z,76.41
2023-01-25T23:04:55.701Z,76.61
2023-01-25T23:07:59.636Z,77.10
2023-01-25T23:11:04.630Z,76.82
2023-01-25T23:14:30.206Z,77.17
2023-01-25T23:17:52.357Z,77.13
2023-01-25T23:20:56.472Z,76.99
2023-01-25T23:24:01.015Z,77.79
2023-01-25T23:27:03.749Z,77.92
2023-01-25T23:30:07.334Z,77.10
2023-01-25T23:33:10.880Z,77.18
2023-01-25T23:36:18.649Z,76.91
2023-01-25T23:39:23.178Z,77.90
2023-01-25T23:42:25.775Z,77.32
2023-01-25T23:45:28.596Z,77.24
2023-01-25T23:48:31.388Z,77.36
2023-01-25T23:51:34.537Z,77.93
2023-01-25T23:54:37.393Z,77.69
2023-01-25T23:57:40.169Z,77.54
